sensor_id;sensor_type;location;lat;lon;timestamp;P1;durP1;ratioP1;P2;durP2;ratioP2
74788;SDS011;63313;48.258;12.518;2022-12-01T00:03:28;67.32000000000001;;;27.57;;
74788;SDS011;63313;48.258;12.518;2022-12-01T00:08:55;76.79999999999998;;;29.1;;
74788;SDS011;63313;48.258;12.518;2022-12-01T00:14:22;76.06000000000002;;;29.04;;
74788;SDS011;63313;48.258;12.518;2022-12-01T00:19:49;75.91999999999999;;;28.809999999999995;;
74788;SDS011;63313;48.258;12.518;2022-12-01T00:25:17;70.56;;;28.609999999999996;;
74788;SDS011;63313;48.258;12.518;2022-12-01T00:30:45;69.99000000000001;;;28.810000000000002;;
74788;SDS011;63313;48.258;12.518;2022-12-01T00:36:12;68.96000000000001;;;27.790000000000003;;
74788;SDS011;63313;48.258;12.518;2022-12-01T00:41:40;74.66;;;29.160000000000004;;
74788;SDS011;63313;48.258;12.518;2022-12-01T00:47:07;69.18;;;27.670000000000005;;
74788;SDS011;63313;48.258;12.518;2022-12-01T00:52:34;71.63;;;30.05;;
74788;SDS011;63313;48.258;12.518;2022-12-01T00:58:01;68.09;;;27.51;;
74788;SDS011;63313;48.258;12.518;2022-12-01T01:03:28;64.60000000000001;;;26.939999999999998;;
74788;SDS011;63313;48.258;12.518;2022-12-01T01:08:56;65.23999999999998;;;26.590000000000003;;
74788;SDS011;63313;48.258;12.518;2022-12-01T01:14:23;70.3;;;27.020000000000003;;
74788;SDS011;63313;48.258;12.518;2022-12-01T01:19:51;68.28;;;27.639999999999997;;
74788;SDS011;63313;48.258;12.518;2022-12-01T01:25:18;71.46000000000001;;;26.089999999999996;;
74788;SDS011;63313;48.258;12.518;2022-12-01T01:30:45;65.17999999999999;;;26.589999999999996;;
74788;SDS011;63313;48.258;12.518;2022-12-01T01:36:12;70.15;;;27.509999999999998;;
74788;SDS011;63313;48.258;12.518;2022-12-01T01:41:40;58.660000000000004;;;23.89;;
74788;SDS011;63313;48.258;12.518;2022-12-01T01:47:07;65.1;;;27.139999999999997;;
74788;SDS011;63313;48.258;12.518;2022-12-01T01:52:34;59.68000000000001;;;24.68;;
74788;SDS011;63313;48.258;12.518;2022-12-01T01:58:03;60.720000000000006;;;25.56;;
74788;SDS011;63313;48.258;12.518;2022-12-01T02:03:32;64.41;;;24.369999999999997;;
74788;SDS011;63313;48.258;12.518;2022-12-01T02:09:01;61.44;;;25.8;;
74788;SDS011;63313;48.258;12.518;2022-12-01T02:14:32;59.82000000000001;;;24.669999999999998;;
74788;SDS011;63313;48.258;12.518;2022-12-01T02:21:08;60.86999999999999;;;25.580000000000002;;
74788;SDS011;63313;48.258;12.518;2022-12-01T02:26:41;66.36999999999999;;;25.610000000000003;;
74788;SDS011;63313;48.258;12.518;2022-12-01T02:32:11;64.00000000000001;;;25.809999999999995;;
74788;SDS011;63313;48.258;12.518;2022-12-01T02:37:41;58.69;;;24.580000000000002;;
74788;SDS011;63313;48.258;12.518;2022-12-01T02:43:13;59.989999999999995;;;24.68;;
74788;SDS011;63313;48.258;12.518;2022-12-01T02:48:42;59.67;;;25.279999999999998;;
74788;SDS011;63313;48.258;12.518;2022-12-01T02:54:10;59.81999999999999;;;25.619999999999997;;
74788;SDS011;63313;48.258;12.518;2022-12-01T02:59:38;59.35;;;25.57;;
74788;SDS011;63313;48.258;12.518;2022-12-01T03:05:07;53.029999999999994;;;23.68;;
74788;SDS011;63313;48.258;12.518;2022-12-01T03:10:37;57.160000000000004;;;25.830000000000002;;
74788;SDS011;63313;48.258;12.518;2022-12-01T03:16:08;54.56;;;23.6;;
74788;SDS011;63313;48.258;12.518;2022-12-01T03:21:37;58.739999999999995;;;24.659999999999997;;
74788;SDS011;63313;48.258;12.518;2022-12-01T03:27:04;57.46;;;24.369999999999997;;
74788;SDS011;63313;48.258;12.518;2022-12-01T03:32:32;63.48;;;24.779999999999998;;
74788;SDS011;63313;48.258;12.518;2022-12-01T03:38:01;64.4;;;24.56;;
74788;SDS011;63313;48.258;12.518;2022-12-01T03:43:31;58.919999999999995;;;25.1;;
74788;SDS011;63313;48.258;12.518;2022-12-01T03:49:00;56.0;;;25.060000000000002;;
74788;SDS011;63313;48.258;12.518;2022-12-01T03:54:28;59.05999999999999;;;24.729999999999997;;
74788;SDS011;63313;48.258;12.518;2022-12-01T03:59:59;58.29;;;26.589999999999996;;
74788;SDS011;63313;48.258;12.518;2022-12-01T04:05:27;57.58;;;24.71;;
74788;SDS011;63313;48.258;12.518;2022-12-01T04:10:54;59.85;;;24.84;;
74788;SDS011;63313;48.258;12.518;2022-12-01T04:16:21;52.3;;;23.919999999999998;;
74788;SDS011;63313;48.258;12.518;2022-12-01T04:21:48;62.470000000000006;;;25.79;;
74788;SDS011;63313;48.258;12.518;2022-12-01T04:27:15;60.67;;;25.400000000000002;;
74788;SDS011;63313;48.258;12.518;2022-12-01T04:32:43;59.0;;;24.78;;
74788;SDS011;63313;48.258;12.518;2022-12-01T04:38:10;54.919999999999995;;;23.619999999999997;;
74788;SDS011;63313;48.258;12.518;2022-12-01T04:43:37;57.489999999999995;;;24.65;;
74788;SDS011;63313;48.258;12.518;2022-12-01T04:49:04;61.48;;;25.169999999999998;;
74788;SDS011;63313;48.258;12.518;2022-12-01T04:54:31;61.260000000000005;;;25.49;;
74788;SDS011;63313;48.258;12.518;2022-12-01T04:59:58;62.79;;;25.259999999999998;;
74788;SDS011;63313;48.258;12.518;2022-12-01T05:05:25;55.029999999999994;;;24.1;;
74788;SDS011;63313;48.258;12.518;2022-12-01T05:10:53;59.489999999999995;;;24.6;;
74788;SDS011;63313;48.258;12.518;2022-12-01T05:16:21;57.56;;;24.2;;
74788;SDS011;63313;48.258;12.518;2022-12-01T05:21:49;50.65;;;23.130000000000003;;
74788;SDS011;63313;48.258;12.518;2022-12-01T05:27:16;52.540000000000006;;;23.19;;
74788;SDS011;63313;48.258;12.518;2022-12-01T05:32:43;53.739999999999995;;;22.9;;
74788;SDS011;63313;48.258;12.518;2022-12-01T05:38:10;52.46;;;22.870000000000005;;
74788;SDS011;63313;48.258;12.518;2022-12-01T05:43:37;60.79;;;25.490000000000002;;
74788;SDS011;63313;48.258;12.518;2022-12-01T05:49:04;53.54;;;23.340000000000003;;
74788;SDS011;63313;48.258;12.518;2022-12-01T05:54:31;54.96;;;23.57;;
74788;SDS011;63313;48.258;12.518;2022-12-01T05:59:58;51.910000000000004;;;22.85;;
74788;SDS011;63313;48.258;12.518;2022-12-01T06:05:25;53.910000000000004;;;22.0;;
74788;SDS011;63313;48.258;12.518;2022-12-01T06:10:52;47.239999999999995;;;20.889999999999997;;
74788;SDS011;63313;48.258;12.518;2022-12-01T06:16:19;47.07;;;20.7;;
74788;SDS011;63313;48.258;12.518;2022-12-01T06:21:46;51.08;;;22.07;;
74788;SDS011;63313;48.258;12.518;2022-12-01T06:27:13;51.470000000000006;;;21.95;;
74788;SDS011;63313;48.258;12.518;2022-12-01T06:32:41;52.779999999999994;;;21.9;;
74788;SDS011;63313;48.258;12.518;2022-12-01T06:38:08;46.89;;;20.59;;
74788;SDS011;63313;48.258;12.518;2022-12-01T06:43:35;44.660000000000004;;;21.35;;
74788;SDS011;63313;48.258;12.518;2022-12-01T06:49:02;47.470000000000006;;;19.94;;
74788;SDS011;63313;48.258;12.518;2022-12-01T06:54:29;43.160000000000004;;;20.19;;
74788;SDS011;63313;48.258;12.518;2022-12-01T06:59:56;45.91;;;20.529999999999998;;
74788;SDS011;63313;48.258;12.518;2022-12-01T07:05:24;50.68999999999999;;;20.720000000000002;;
74788;SDS011;63313;48.258;12.518;2022-12-01T07:10:57;53.27;;;20.599999999999998;;
74788;SDS011;63313;48.258;12.518;2022-12-01T07:16:24;52.120000000000005;;;20.599999999999998;;
74788;SDS011;63313;48.258;12.518;2022-12-01T07:21:51;53.32000000000001;;;22.07;;
74788;SDS011;63313;48.258;12.518;2022-12-01T07:27:18;47.86;;;21.430000000000003;;
74788;SDS011;63313;48.258;12.518;2022-12-01T07:32:45;51.79;;;22.119999999999997;;
74788;SDS011;63313;48.258;12.518;2022-12-01T07:38:12;48.88;;;21.35;;
74788;SDS011;63313;48.258;12.518;2022-12-01T07:43:39;57.98;;;22.779999999999998;;
74788;SDS011;63313;48.258;12.518;2022-12-01T07:49:07;50.879999999999995;;;22.17;;
74788;SDS011;63313;48.258;12.518;2022-12-01T07:54:34;47.92;;;21.759999999999998;;
74788;SDS011;63313;48.258;12.518;2022-12-01T08:00:01;55.959999999999994;;;22.699999999999996;;
74788;SDS011;63313;48.258;12.518;2022-12-01T08:05:29;53.77;;;22.109999999999996;;
74788;SDS011;63313;48.258;12.518;2022-12-01T08:10:58;51.029999999999994;;;21.849999999999998;;
74788;SDS011;63313;48.258;12.518;2022-12-01T08:16:25;50.69;;;21.830000000000002;;
74788;SDS011;63313;48.258;12.518;2022-12-01T08:21:52;47.93000000000001;;;22.309999999999995;;
74788;SDS011;63313;48.258;12.518;2022-12-01T08:27:19;50.830000000000005;;;23.04;;
74788;SDS011;63313;48.258;12.518;2022-12-01T08:32:46;49.97;;;22.939999999999998;;
74788;SDS011;63313;48.258;12.518;2022-12-01T08:38:13;53.160000000000004;;;23.18;;
74788;SDS011;63313;48.258;12.518;2022-12-01T08:43:41;59.05;;;24.440000000000005;;
74788;SDS011;63313;48.258;12.518;2022-12-01T08:49:08;49.19;;;22.28;;
74788;SDS011;63313;48.258;12.518;2022-12-01T08:54:35;51.75;;;22.24;;
74788;SDS011;63313;48.258;12.518;2022-12-01T09:00:02;56.59000000000001;;;24.139999999999997;;
74788;SDS011;63313;48.258;12.518;2022-12-01T09:05:29;54.32000000000001;;;24.970000000000002;;
74788;SDS011;63313;48.258;12.518;2022-12-01T09:10:57;58.15;;;25.490000000000002;;
74788;SDS011;63313;48.258;12.518;2022-12-01T09:16:24;56.879999999999995;;;23.619999999999997;;
74788;SDS011;63313;48.258;12.518;2022-12-01T09:21:51;55.19;;;23.520000000000003;;
74788;SDS011;63313;48.258;12.518;2022-12-01T09:27:18;57.98;;;26.85;;
74788;SDS011;63313;48.258;12.518;2022-12-01T09:32:45;57.45;;;24.04;;
74788;SDS011;63313;48.258;12.518;2022-12-01T09:38:12;53.8;;;24.740000000000002;;
74788;SDS011;63313;48.258;12.518;2022-12-01T09:43:40;56.8;;;25.509999999999998;;
74788;SDS011;63313;48.258;12.518;2022-12-01T09:49:11;58.14;;;25.31;;
74788;SDS011;63313;48.258;12.518;2022-12-01T09:54:41;58.879999999999995;;;25.889999999999997;;
74788;SDS011;63313;48.258;12.518;2022-12-01T10:00:11;53.09000000000001;;;24.54;;
74788;SDS011;63313;48.258;12.518;2022-12-01T10:05:41;54.67;;;24.220000000000002;;
74788;SDS011;63313;48.258;12.518;2022-12-01T10:11:12;51.46;;;23.55;;
74788;SDS011;63313;48.258;12.518;2022-12-01T10:16:43;60.32000000000001;;;24.669999999999998;;
74788;SDS011;63313;48.258;12.518;2022-12-01T10:22:16;53.1;;;24.89;;
74788;SDS011;63313;48.258;12.518;2022-12-01T10:27:46;56.3;;;24.259999999999998;;
74788;SDS011;63313;48.258;12.518;2022-12-01T10:33:19;52.92;;;23.990000000000002;;
74788;SDS011;63313;48.258;12.518;2022-12-01T10:38:48;59.46;;;24.509999999999998;;
74788;SDS011;63313;48.258;12.518;2022-12-01T10:44:15;68.24;;;29.35;;
74788;SDS011;63313;48.258;12.518;2022-12-01T10:49:43;63.14000000000001;;;26.419999999999998;;
74788;SDS011;63313;48.258;12.518;2022-12-01T10:55:24;57.36999999999999;;;24.490000000000002;;
74788;SDS011;63313;48.258;12.518;2022-12-01T11:00:53;64.95;;;27.54;;
74788;SDS011;63313;48.258;12.518;2022-12-01T11:06:22;88.65;;;34.37;;
74788;SDS011;63313;48.258;12.518;2022-12-01T11:11:53;82.34;;;33.019999999999996;;
74788;SDS011;63313;48.258;12.518;2022-12-01T11:17:24;66.51;;;27.589999999999996;;
74788;SDS011;63313;48.258;12.518;2022-12-01T11:22:52;68.04;;;29.220000000000006;;
74788;SDS011;63313;48.258;12.518;2022-12-01T11:28:19;58.410000000000004;;;25.910000000000004;;
74788;SDS011;63313;48.258;12.518;2022-12-01T11:33:47;60.620000000000005;;;25.790000000000003;;
74788;SDS011;63313;48.258;12.518;2022-12-01T11:39:20;62.339999999999996;;;25.910000000000004;;
74788;SDS011;63313;48.258;12.518;2022-12-01T11:44:48;59.28000000000001;;;26.429999999999996;;
74788;SDS011;63313;48.258;12.518;2022-12-01T11:50:22;61.55;;;25.35;;
74788;SDS011;63313;48.258;12.518;2022-12-01T11:55:49;63.28000000000001;;;26.130000000000003;;
74788;SDS011;63313;48.258;12.518;2022-12-01T12:01:20;64.69;;;25.96;;
74788;SDS011;63313;48.258;12.518;2022-12-01T12:06:53;62.11;;;26.380000000000003;;
74788;SDS011;63313;48.258;12.518;2022-12-01T12:12:28;75.48;;;34.12;;
74788;SDS011;63313;48.258;12.518;2022-12-01T12:18:03;88.28999999999999;;;40.06;;
74788;SDS011;63313;48.258;12.518;2022-12-01T12:23:36;74.22999999999999;;;30.660000000000004;;
74788;SDS011;63313;48.258;12.518;2022-12-01T12:29:12;68.62;;;27.48;;
74788;SDS011;63313;48.258;12.518;2022-12-01T12:34:44;64.7;;;27.07;;
74788;SDS011;63313;48.258;12.518;2022-12-01T12:40:19;64.33;;;27.5;;
74788;SDS011;63313;48.258;12.518;2022-12-01T12:45:52;58.81;;;25.77;;
74788;SDS011;63313;48.258;12.518;2022-12-01T12:51:23;70.53;;;26.310000000000002;;
74788;SDS011;63313;48.258;12.518;2022-12-01T12:56:54;63.040000000000006;;;26.95;;
74788;SDS011;63313;48.258;12.518;2022-12-01T13:02:25;63.730000000000004;;;25.35;;
74788;SDS011;63313;48.258;12.518;2022-12-01T13:07:54;63.5;;;25.85;;
74788;SDS011;63313;48.258;12.518;2022-12-01T13:13:24;65.16999999999999;;;26.95;;
74788;SDS011;63313;48.258;12.518;2022-12-01T13:18:54;68.39000000000001;;;28.2;;
74788;SDS011;63313;48.258;12.518;2022-12-01T13:24:22;70.88;;;27.51;;
74788;SDS011;63313;48.258;12.518;2022-12-01T13:29:51;62.94;;;26.830000000000002;;
74788;SDS011;63313;48.258;12.518;2022-12-01T13:35:21;65.55000000000001;;;26.339999999999996;;
74788;SDS011;63313;48.258;12.518;2022-12-01T13:41:08;65.97;;;27.0;;
74788;SDS011;63313;48.258;12.518;2022-12-01T13:46:49;70.81;;;26.68;;
74788;SDS011;63313;48.258;12.518;2022-12-01T13:52:25;65.61;;;26.770000000000003;;
74788;SDS011;63313;48.258;12.518;2022-12-01T13:58:24;86.83000000000001;;;36.190000000000005;;
74788;SDS011;63313;48.258;12.518;2022-12-01T14:03:52;71.17;;;29.870000000000005;;
74788;SDS011;63313;48.258;12.518;2022-12-01T14:09:20;70.45;;;29.52;;
74788;SDS011;63313;48.258;12.518;2022-12-01T14:14:50;75.97;;;30.65;;
74788;SDS011;63313;48.258;12.518;2022-12-01T14:20:19;86.47999999999999;;;33.95;;
74788;SDS011;63313;48.258;12.518;2022-12-01T14:25:55;92.16999999999999;;;33.09;;
74788;SDS011;63313;48.258;12.518;2022-12-01T14:31:23;80.84;;;30.639999999999997;;
74788;SDS011;63313;48.258;12.518;2022-12-01T14:36:51;91.75999999999999;;;31.950000000000006;;
74788;SDS011;63313;48.258;12.518;2022-12-01T14:42:22;84.3;;;30.959999999999997;;
74788;SDS011;63313;48.258;12.518;2022-12-01T14:47:51;76.49999999999999;;;28.51;;
74788;SDS011;63313;48.258;12.518;2022-12-01T14:53:22;77.15;;;30.25;;
74788;SDS011;63313;48.258;12.518;2022-12-01T14:58:52;74.89;;;27.35;;
74788;SDS011;63313;48.258;12.518;2022-12-01T15:04:19;80.21000000000001;;;28.830000000000002;;
74788;SDS011;63313;48.258;12.518;2022-12-01T15:09:56;73.78999999999999;;;28.410000000000004;;
74788;SDS011;63313;48.258;12.518;2022-12-01T15:15:24;76.82000000000001;;;30.079999999999995;;
74788;SDS011;63313;48.258;12.518;2022-12-01T15:20:54;79.27000000000001;;;28.410000000000004;;
74788;SDS011;63313;48.258;12.518;2022-12-01T15:26:23;77.95000000000002;;;29.65;;
74788;SDS011;63313;48.258;12.518;2022-12-01T15:31:51;71.08000000000001;;;27.74;;
74788;SDS011;63313;48.258;12.518;2022-12-01T15:37:19;76.91000000000001;;;29.550000000000004;;
74788;SDS011;63313;48.258;12.518;2022-12-01T15:42:58;79.22;;;29.599999999999994;;
74788;SDS011;63313;48.258;12.518;2022-12-01T15:48:27;82.13;;;31.410000000000004;;
74788;SDS011;63313;48.258;12.518;2022-12-01T15:53:56;78.83000000000001;;;31.85;;
74788;SDS011;63313;48.258;12.518;2022-12-01T15:59:25;80.9;;;30.330000000000002;;
74788;SDS011;63313;48.258;12.518;2022-12-01T16:05:02;77.11999999999999;;;29.610000000000003;;
74788;SDS011;63313;48.258;12.518;2022-12-01T16:10:30;76.52999999999999;;;28.369999999999997;;
74788;SDS011;63313;48.258;12.518;2022-12-01T16:15:57;79.35000000000001;;;29.639999999999997;;
74788;SDS011;63313;48.258;12.518;2022-12-01T16:21:25;88.61999999999999;;;31.15;;
74788;SDS011;63313;48.258;12.518;2022-12-01T16:26:53;79.17999999999999;;;29.020000000000003;;
74788;SDS011;63313;48.258;12.518;2022-12-01T16:32:22;79.28;;;28.880000000000003;;
74788;SDS011;63313;48.258;12.518;2022-12-01T16:37:49;87.91999999999999;;;30.419999999999998;;
74788;SDS011;63313;48.258;12.518;2022-12-01T16:43:16;74.98;;;28.279999999999994;;
74788;SDS011;63313;48.258;12.518;2022-12-01T16:48:43;79.75999999999999;;;29.090000000000003;;
74788;SDS011;63313;48.258;12.518;2022-12-01T16:54:10;108.17;;;45.629999999999995;;
74788;SDS011;63313;48.258;12.518;2022-12-01T16:59:38;72.64000000000001;;;29.03;;
74788;SDS011;63313;48.258;12.518;2022-12-01T17:05:05;69.69;;;28.1;;
74788;SDS011;63313;48.258;12.518;2022-12-01T17:10:32;74.05;;;28.54;;
74788;SDS011;63313;48.258;12.518;2022-12-01T17:16:02;69.82;;;27.889999999999997;;
74788;SDS011;63313;48.258;12.518;2022-12-01T17:21:29;72.97;;;27.610000000000003;;
74788;SDS011;63313;48.258;12.518;2022-12-01T17:26:56;68.49000000000001;;;27.99;;
74788;SDS011;63313;48.258;12.518;2022-12-01T17:32:23;72.01;;;27.45;;
74788;SDS011;63313;48.258;12.518;2022-12-01T17:37:51;73.21000000000001;;;28.290000000000003;;
74788;SDS011;63313;48.258;12.518;2022-12-01T17:43:18;78.48;;;28.68;;
74788;SDS011;63313;48.258;12.518;2022-12-01T17:48:45;64.39;;;27.409999999999997;;
74788;SDS011;63313;48.258;12.518;2022-12-01T17:54:12;72.17;;;28.860000000000003;;
74788;SDS011;63313;48.258;12.518;2022-12-01T17:59:39;72.72999999999999;;;30.640000000000004;;
74788;SDS011;63313;48.258;12.518;2022-12-01T18:05:07;71.17999999999999;;;29.660000000000004;;
74788;SDS011;63313;48.258;12.518;2022-12-01T18:10:34;82.03;;;31.700000000000006;;
74788;SDS011;63313;48.258;12.518;2022-12-01T18:16:04;73.56;;;31.290000000000003;;
74788;SDS011;63313;48.258;12.518;2022-12-01T18:21:31;84.92999999999999;;;32.129999999999995;;
74788;SDS011;63313;48.258;12.518;2022-12-01T18:26:58;78.88000000000001;;;31.439999999999998;;
74788;SDS011;63313;48.258;12.518;2022-12-01T18:32:25;69.17999999999999;;;29.340000000000003;;
74788;SDS011;63313;48.258;12.518;2022-12-01T18:37:53;71.89;;;30.98;;
74788;SDS011;63313;48.258;12.518;2022-12-01T18:43:20;74.35999999999999;;;29.65;;
74788;SDS011;63313;48.258;12.518;2022-12-01T18:48:47;69.08;;;28.229999999999997;;
74788;SDS011;63313;48.258;12.518;2022-12-01T18:54:15;71.72;;;28.77;;
74788;SDS011;63313;48.258;12.518;2022-12-01T18:59:42;73.29;;;29.119999999999997;;
74788;SDS011;63313;48.258;12.518;2022-12-01T19:05:09;76.44000000000001;;;30.8;;
74788;SDS011;63313;48.258;12.518;2022-12-01T19:10:36;75.44;;;30.68;;
74788;SDS011;63313;48.258;12.518;2022-12-01T19:16:04;83.35;;;30.2;;
74788;SDS011;63313;48.258;12.518;2022-12-01T19:21:31;69.94000000000001;;;28.409999999999997;;
74788;SDS011;63313;48.258;12.518;2022-12-01T19:26:58;75.15;;;30.27;;
74788;SDS011;63313;48.258;12.518;2022-12-01T19:32:25;67.05;;;27.939999999999998;;
74788;SDS011;63313;48.258;12.518;2022-12-01T19:37:52;67.94999999999999;;;29.619999999999997;;
74788;SDS011;63313;48.258;12.518;2022-12-01T19:43:19;64.12;;;27.860000000000003;;
74788;SDS011;63313;48.258;12.518;2022-12-01T19:48:51;60.9;;;27.22;;
74788;SDS011;63313;48.258;12.518;2022-12-01T19:54:18;67.34;;;28.119999999999997;;
74788;SDS011;63313;48.258;12.518;2022-12-01T19:59:46;69.21000000000001;;;27.8;;
74788;SDS011;63313;48.258;12.518;2022-12-01T20:05:13;71.2;;;28.74;;
74788;SDS011;63313;48.258;12.518;2022-12-01T20:10:44;57.85;;;27.07;;
74788;SDS011;63313;48.258;12.518;2022-12-01T20:16:12;56.79;;;24.8;;
74788;SDS011;63313;48.258;12.518;2022-12-01T20:21:40;57.620000000000005;;;23.15;;
74788;SDS011;63313;48.258;12.518;2022-12-01T20:27:07;57.96;;;24.21;;
74788;SDS011;63313;48.258;12.518;2022-12-01T20:32:34;48.760000000000005;;;22.94;;
74788;SDS011;63313;48.258;12.518;2022-12-01T20:38:01;50.419999999999995;;;22.94;;
74788;SDS011;63313;48.258;12.518;2022-12-01T20:43:28;54.959999999999994;;;23.589999999999996;;
74788;SDS011;63313;48.258;12.518;2022-12-01T20:48:55;58.05999999999999;;;24.17;;
74788;SDS011;63313;48.258;12.518;2022-12-01T20:54:22;51.23;;;22.22;;
74788;SDS011;63313;48.258;12.518;2022-12-01T20:59:49;59.64;;;23.570000000000004;;
74788;SDS011;63313;48.258;12.518;2022-12-01T21:05:16;56.720000000000006;;;24.21;;
74788;SDS011;63313;48.258;12.518;2022-12-01T21:10:44;55.029999999999994;;;23.759999999999998;;
74788;SDS011;63313;48.258;12.518;2022-12-01T21:16:24;57.660000000000004;;;24.040000000000003;;
74788;SDS011;63313;48.258;12.518;2022-12-01T21:21:51;64.07;;;25.919999999999998;;
74788;SDS011;63313;48.258;12.518;2022-12-01T21:27:18;69.26;;;27.610000000000003;;
74788;SDS011;63313;48.258;12.518;2022-12-01T21:32:45;62.67;;;26.859999999999996;;
74788;SDS011;63313;48.258;12.518;2022-12-01T21:38:13;65.60000000000001;;;26.95;;
74788;SDS011;63313;48.258;12.518;2022-12-01T21:43:40;61.52;;;25.880000000000003;;
74788;SDS011;63313;48.258;12.518;2022-12-01T21:49:08;57.07000000000001;;;25.890000000000004;;
74788;SDS011;63313;48.258;12.518;2022-12-01T21:54:36;65.76;;;26.060000000000002;;
74788;SDS011;63313;48.258;12.518;2022-12-01T22:00:18;61.0;;;25.56;;
74788;SDS011;63313;48.258;12.518;2022-12-01T22:05:47;63.510000000000005;;;24.79;;
74788;SDS011;63313;48.258;12.518;2022-12-01T22:11:15;53.370000000000005;;;23.85;;
74788;SDS011;63313;48.258;12.518;2022-12-01T22:16:44;60.330000000000005;;;24.24;;
74788;SDS011;63313;48.258;12.518;2022-12-01T22:22:17;61.44;;;26.32;;
74788;SDS011;63313;48.258;12.518;2022-12-01T22:27:47;58.54;;;25.509999999999998;;
74788;SDS011;63313;48.258;12.518;2022-12-01T22:33:15;64.99;;;26.5;;
74788;SDS011;63313;48.258;12.518;2022-12-01T22:38:45;57.55000000000001;;;24.499999999999996;;
74788;SDS011;63313;48.258;12.518;2022-12-01T22:44:12;60.620000000000005;;;26.05;;
74788;SDS011;63313;48.258;12.518;2022-12-01T22:49:39;53.4;;;24.18;;
74788;SDS011;63313;48.258;12.518;2022-12-01T22:55:08;59.44;;;24.43;;
74788;SDS011;63313;48.258;12.518;2022-12-01T23:00:38;59.260000000000005;;;24.9;;
74788;SDS011;63313;48.258;12.518;2022-12-01T23:06:06;62.36;;;25.59;;
74788;SDS011;63313;48.258;12.518;2022-12-01T23:12:15;59.8;;;24.240000000000002;;
74788;SDS011;63313;48.258;12.518;2022-12-01T23:17:46;59.46999999999999;;;26.03;;
74788;SDS011;63313;48.258;12.518;2022-12-01T23:23:13;67.49;;;26.879999999999995;;
74788;SDS011;63313;48.258;12.518;2022-12-01T23:28:41;58.330000000000005;;;25.9;;
74788;SDS011;63313;48.258;12.518;2022-12-01T23:34:10;62.239999999999995;;;26.35;;
74788;SDS011;63313;48.258;12.518;2022-12-01T23:39:38;62.980000000000004;;;25.74;;
74788;SDS011;63313;48.258;12.518;2022-12-01T23:45:07;60.660000000000004;;;25.73;;
74788;SDS011;63313;48.258;12.518;2022-12-01T23:50:37;57.830000000000005;;;25.12;;
74788;SDS011;63313;48.258;12.518;2022-12-01T23:56:05;63.03000000000001;;;25.03;;
